Time;durP1;ratioP1;P1;durP2;ratioP2;P2;SDS_P1;SDS_P2;PMS_P1;PMS_P2;Temp;Humidity;BMP_temperature;BMP_pressure;BME280_temperature;BME280_humidity;BME280_pressure;Samples;Min_cycle;Max_cycle;Signal;HPM_P1;HPM_P2
2023/10/26 00:00:36;;;;;;;1.10;0.50;;;;;;;;;;5133628;27;20025;-68
2023/10/26 00:03:02;;;;;;;0.95;0.40;;;;;;;;;;5131516;27;20007;-67
2023/10/26 00:05:28;;;;;;;0.57;0.40;;;;;;;;;;5130076;27;20030;-68
2023/10/26 00:07:54;;;;;;;2.95;0.70;;;;;;;;;;5131930;27;20158;-67
2023/10/26 00:10:20;;;;;;;2.33;0.40;;;;;;;;;;5110667;27;20025;-68
2023/10/26 00:12:46;;;;;;;1.45;0.47;;;;;;;;;;5127736;27;20023;-67
2023/10/26 00:15:12;;;;;;;0.75;0.38;;;;;;;;;;5131029;27;20075;-67
2023/10/26 00:17:38;;;;;;;3.70;0.60;;;;;;;;;;5132378;27;20023;-68
2023/10/26 00:20:08;;;;;;;1.58;0.50;;;;;;;;;;5126551;27;20015;-67
2023/10/26 00:22:34;;;;;;;1.13;0.50;;;;;;;;;;5130484;27;20483;-67
2023/10/26 00:24:59;;;;;;;3.08;0.50;;;;;;;;;;5131194;27;20329;-68
2023/10/26 00:27:25;;;;;;;1.30;0.60;;;;;;;;;;5128341;27;20034;-67
2023/10/26 00:29:51;;;;;;;0.88;0.60;;;;;;;;;;5127922;27;20015;-67
2023/10/26 00:32:17;;;;;;;4.30;0.80;;;;;;;;;;5127962;27;20030;-67
2023/10/26 00:34:43;;;;;;;2.10;0.65;;;;;;;;;;5130781;27;20347;-67
2023/10/26 00:37:10;;;;;;;0.57;0.40;;;;;;;;;;5131460;27;20015;-67
2023/10/26 00:39:36;;;;;;;1.58;0.57;;;;;;;;;;5111457;28;20367;-68
2023/10/26 00:42:01;;;;;;;1.60;0.40;;;;;;;;;;5131196;28;20019;-67
2023/10/26 00:44:28;;;;;;;1.70;0.57;;;;;;;;;;5124603;28;20076;-67
2023/10/26 00:46:54;;;;;;;1.95;0.88;;;;;;;;;;5121174;28;20047;-67
2023/10/26 00:49:21;;;;;;;1.70;0.52;;;;;;;;;;5124790;28;20022;-67
2023/10/26 00:51:56;;;;;;;1.63;0.65;;;;;;;;;;5127774;27;20565;-67
2023/10/26 00:54:22;;;;;;;1.17;0.52;;;;;;;;;;5126202;28;20015;-68
2023/10/26 00:56:49;;;;;;;3.63;0.68;;;;;;;;;;5132082;28;20519;-67
2023/10/26 00:59:15;;;;;;;4.05;0.50;;;;;;;;;;5131146;28;20033;-67
2023/10/26 01:01:42;;;;;;;3.65;0.50;;;;;;;;;;5120488;28;20011;-68
2023/10/26 01:04:08;;;;;;;2.17;0.68;;;;;;;;;;5131658;28;20031;-67
2023/10/26 01:06:34;;;;;;;1.58;0.57;;;;;;;;;;5131337;28;20019;-67
2023/10/26 01:09:00;;;;;;;0.57;0.35;;;;;;;;;;5132334;27;20475;-67
2023/10/26 01:11:26;;;;;;;4.03;0.52;;;;;;;;;;5131224;28;20417;-67
2023/10/26 01:13:52;;;;;;;1.65;0.70;;;;;;;;;;5131801;28;20090;-67
2023/10/26 01:16:18;;;;;;;2.75;0.38;;;;;;;;;;5130985;27;20035;-67
2023/10/26 01:18:44;;;;;;;2.25;0.60;;;;;;;;;;5135564;27;20375;-67
2023/10/26 01:21:10;;;;;;;1.90;0.60;;;;;;;;;;5135912;27;20019;-67
2023/10/26 01:23:36;;;;;;;2.38;0.50;;;;;;;;;;5135106;27;20085;-67
2023/10/26 01:26:02;;;;;;;1.85;0.70;;;;;;;;;;5136329;27;20448;-67
2023/10/26 01:28:28;;;;;;;1.00;0.52;;;;;;;;;;5124363;27;20086;-67
2023/10/26 01:30:54;;;;;;;2.58;0.55;;;;;;;;;;5122094;27;20515;-67
2023/10/26 01:33:21;;;;;;;3.42;0.52;;;;;;;;;;5134604;27;20106;-67
2023/10/26 01:35:47;;;;;;;3.67;0.60;;;;;;;;;;5135436;27;20015;-67
2023/10/26 01:38:13;;;;;;;2.38;0.55;;;;;;;;;;5135010;27;20026;-67
2023/10/26 01:40:39;;;;;;;1.70;0.50;;;;;;;;;;5135743;27;20011;-67
2023/10/26 01:43:05;;;;;;;0.82;0.50;;;;;;;;;;5126874;27;20016;-67
2023/10/26 01:45:31;;;;;;;3.53;0.75;;;;;;;;;;5133721;27;20622;-67
2023/10/26 01:48:02;;;;;;;3.83;0.90;;;;;;;;;;5135201;27;20090;-67
2023/10/26 01:50:29;;;;;;;2.75;0.50;;;;;;;;;;5134621;27;20071;-68
2023/10/26 01:52:55;;;;;;;2.30;0.70;;;;;;;;;;5135029;27;20067;-67
2023/10/26 01:55:21;;;;;;;2.70;0.40;;;;;;;;;;5134104;27;20034;-67
2023/10/26 01:57:46;;;;;;;0.75;0.38;;;;;;;;;;5134938;27;20015;-67
2023/10/26 02:00:13;;;;;;;2.72;0.47;;;;;;;;;;5135877;27;20015;-67
2023/10/26 02:02:39;;;;;;;0.93;0.40;;;;;;;;;;5134338;27;20027;-67
2023/10/26 02:05:05;;;;;;;3.13;0.50;;;;;;;;;;5135200;27;20033;-68
2023/10/26 02:07:31;;;;;;;3.60;0.60;;;;;;;;;;5133422;27;20023;-67
2023/10/26 02:09:57;;;;;;;1.98;0.60;;;;;;;;;;5135147;27;20023;-67
2023/10/26 02:12:23;;;;;;;1.60;0.40;;;;;;;;;;5133899;27;20015;-67
2023/10/26 02:14:49;;;;;;;1.80;0.47;;;;;;;;;;5134546;27;20072;-66
2023/10/26 02:17:15;;;;;;;4.50;0.50;;;;;;;;;;5134332;27;20106;-67
2023/10/26 02:19:41;;;;;;;3.38;0.60;;;;;;;;;;5134741;27;20015;-67
2023/10/26 02:22:07;;;;;;;2.00;0.70;;;;;;;;;;5134938;27;20014;-67
2023/10/26 02:24:33;;;;;;;2.08;0.30;;;;;;;;;;5115172;27;20639;-67
2023/10/26 02:26:59;;;;;;;1.83;0.60;;;;;;;;;;5132283;27;20038;-67
2023/10/26 02:29:25;;;;;;;3.40;0.68;;;;;;;;;;5108334;27;20152;-67
2023/10/26 02:31:51;;;;;;;1.55;0.50;;;;;;;;;;5131715;27;20398;-67
2023/10/26 02:34:17;;;;;;;1.10;0.35;;;;;;;;;;5128757;27;20016;-68
2023/10/26 02:36:43;;;;;;;3.15;0.60;;;;;;;;;;5134543;27;20011;-67
2023/10/26 02:39:09;;;;;;;1.98;0.50;;;;;;;;;;5134202;27;20023;-67
2023/10/26 02:41:35;;;;;;;1.52;0.40;;;;;;;;;;5134085;27;20024;-67
2023/10/26 02:44:01;;;;;;;3.97;0.55;;;;;;;;;;5133744;27;20106;-67
2023/10/26 02:46:27;;;;;;;1.10;0.40;;;;;;;;;;5115130;27;20359;-67
2023/10/26 02:48:53;;;;;;;3.90;0.75;;;;;;;;;;5133838;27;20047;-67
2023/10/26 02:51:19;;;;;;;1.45;0.43;;;;;;;;;;5134278;27;20029;-67
2023/10/26 02:53:45;;;;;;;2.47;0.50;;;;;;;;;;5128998;27;20015;-67
2023/10/26 02:56:11;;;;;;;1.42;0.40;;;;;;;;;;5134145;27;20033;-67
2023/10/26 02:58:37;;;;;;;1.25;0.43;;;;;;;;;;5133082;27;20138;-67
2023/10/26 03:01:03;;;;;;;1.92;0.65;;;;;;;;;;5134203;27;20066;-67
2023/10/26 03:03:29;;;;;;;0.75;0.30;;;;;;;;;;5132145;27;20425;-67
2023/10/26 03:05:58;;;;;;;2.67;0.47;;;;;;;;;;5133827;27;20054;-67
2023/10/26 03:08:24;;;;;;;0.37;0.20;;;;;;;;;;5133290;27;20034;-67
2023/10/26 03:10:50;;;;;;;0.65;0.47;;;;;;;;;;5120651;27;20797;-67
2023/10/26 03:13:16;;;;;;;2.08;0.30;;;;;;;;;;5129523;27;20031;-67
2023/10/26 03:15:42;;;;;;;2.13;0.60;;;;;;;;;;5133048;27;20043;-67
2023/10/26 03:18:08;;;;;;;1.45;0.50;;;;;;;;;;5132713;27;20034;-67
2023/10/26 03:20:34;;;;;;;1.05;0.32;;;;;;;;;;5132416;27;20027;-67
2023/10/26 03:23:00;;;;;;;4.13;0.50;;;;;;;;;;5132696;27;20076;-67
2023/10/26 03:25:26;;;;;;;2.53;0.45;;;;;;;;;;5133297;27;20030;-67
2023/10/26 03:27:52;;;;;;;1.98;0.50;;;;;;;;;;5117602;27;20020;-67
2023/10/26 03:30:20;;;;;;;1.95;0.60;;;;;;;;;;5130201;27;20367;-67
2023/10/26 03:32:45;;;;;;;1.10;0.60;;;10.10;99.90;;;;;;5131978;27;20042;-66
2023/10/26 03:35:11;;;;;;;3.63;0.47;;;10.00;99.90;;;;;;5132624;27;20401;-66
2023/10/26 03:37:37;;;;;;;0.43;0.43;;;9.90;99.90;;;;;;5131731;27;20031;-67
2023/10/26 03:40:06;;;;;;;1.42;0.63;;;9.80;99.90;;;;;;5124909;27;20024;-66
2023/10/26 03:42:32;;;;;;;2.80;0.80;;;9.80;99.90;;;;;;5106400;27;20027;-67
2023/10/26 03:44:58;;;;;;;2.13;0.50;;;9.70;99.90;;;;;;5133144;27;20424;-67
2023/10/26 03:47:24;;;;;;;3.45;0.93;;;9.70;99.90;;;;;;5116309;27;20087;-67
2023/10/26 03:49:52;;;;;;;2.88;0.70;;;9.70;99.90;;;;;;5133254;27;20022;-67
2023/10/26 03:52:19;;;;;;;3.25;0.82;;;9.60;99.90;;;;;;5113572;27;20423;-67
2023/10/26 03:54:44;;;;;;;1.58;0.50;;;9.50;99.90;;;;;;5132845;27;20050;-67
2023/10/26 03:57:10;;;;;;;0.80;0.45;;;9.50;99.90;;;;;;5132873;27;20054;-68
2023/10/26 03:59:35;;;;;;;2.70;1.13;;;9.50;99.90;;;;;;5119876;27;20027;-67
2023/10/26 04:02:01;;;;;;;1.15;0.50;;;9.40;99.90;;;;;;5128459;27;20026;-67
2023/10/26 04:04:27;;;;;;;2.90;0.55;;;;;;;;;;5131315;27;20486;-67
2023/10/26 04:06:52;;;;;;;1.30;0.60;;;9.30;99.90;;;;;;5133061;27;20042;-68
2023/10/26 04:09:18;;;;;;;2.92;0.63;;;9.30;99.90;;;;;;5131645;27;20061;-67
2023/10/26 04:11:45;;;;;;;1.10;0.60;;;9.30;99.90;;;;;;5132586;27;20019;-67
2023/10/26 04:14:10;;;;;;;2.05;0.43;;;9.30;99.90;;;;;;5131976;27;20027;-67
2023/10/26 04:16:36;;;;;;;1.73;0.57;;;9.30;99.90;;;;;;5132005;27;20039;-67
2023/10/26 04:19:02;;;;;;;1.90;0.75;;;9.30;99.90;;;;;;5131831;27;20094;-67
2023/10/26 04:21:28;;;;;;;1.73;0.65;;;9.30;99.90;;;;;;5131801;27;20046;-67
2023/10/26 04:23:53;;;;;;;1.52;0.40;;;9.20;99.90;;;;;;5131559;27;20064;-67
2023/10/26 04:26:19;;;;;;;1.60;0.68;;;9.20;99.90;;;;;;5131855;27;20063;-67
2023/10/26 04:28:44;;;;;;;1.50;0.70;;;9.20;99.90;;;;;;5126766;27;20031;-67
2023/10/26 04:31:10;;;;;;;2.00;0.55;;;9.20;99.90;;;;;;5131748;27;20053;-67
2023/10/26 04:33:36;;;;;;;1.23;0.60;;;9.10;99.90;;;;;;5132830;27;20057;-66
2023/10/26 04:36:02;;;;;;;3.42;0.60;;;9.10;99.90;;;;;;5133516;27;20030;-67
2023/10/26 04:38:28;;;;;;;3.97;0.70;;;9.10;99.90;;;;;;5130944;27;20023;-67
2023/10/26 04:40:54;;;;;;;2.60;0.60;;;9.10;99.90;;;;;;5132928;27;20371;-66
2023/10/26 04:43:19;;;;;;;2.92;0.50;;;9.10;99.90;;;;;;5130533;28;20019;-67
2023/10/26 04:45:46;;;;;;;3.30;0.52;;;9.20;99.90;;;;;;5122908;28;20072;-67
2023/10/26 04:48:12;;;;;;;1.20;0.40;;;9.30;99.90;;;;;;5131417;28;20102;-67
2023/10/26 04:50:38;;;;;;;2.53;0.40;;;9.30;99.90;;;;;;5132891;27;20100;-66
2023/10/26 04:53:04;;;;;;;1.27;0.70;;;9.40;99.90;;;;;;5135104;27;20210;-66
2023/10/26 04:55:35;;;;;;;2.35;0.43;;;9.40;99.90;;;;;;5128373;27;20490;-66
2023/10/26 04:58:02;;;;;;;3.38;0.57;;;9.40;99.90;;;;;;5136047;27;20019;-66
2023/10/26 05:00:28;;;;;;;2.75;0.80;;;9.50;99.90;;;;;;5135537;27;20413;-65
2023/10/26 05:02:53;;;;;;;4.15;0.60;;;9.50;99.90;;;;;;5135812;27;20097;-66
2023/10/26 05:05:19;;;;;;;2.53;0.60;;;9.50;99.90;;;;;;5117792;27;20055;-66
2023/10/26 05:07:45;;;;;;;2.38;0.70;;;9.50;99.90;;;;;;5127651;27;20023;-66
2023/10/26 05:10:11;;;;;;;1.27;0.52;;;9.50;99.90;;;;;;5136034;27;20463;-66
2023/10/26 05:12:37;;;;;;;1.05;0.80;;;9.50;99.90;;;;;;5135268;27;20027;-66
2023/10/26 05:15:03;;;;;;;0.70;0.40;;;9.60;99.90;;;;;;5121047;27;20030;-66
2023/10/26 05:17:29;;;;;;;3.63;0.70;;;9.60;99.90;;;;;;5134209;27;20042;-66
2023/10/26 05:19:55;;;;;;;1.85;0.90;;;9.60;99.90;;;;;;5136009;27;20351;-67
2023/10/26 05:22:20;;;;;;;1.50;0.50;;;9.70;99.90;;;;;;5134697;27;20023;-67
2023/10/26 05:24:46;;;;;;;1.67;0.68;;;9.70;99.90;;;;;;5136743;27;20039;-67
2023/10/26 05:27:12;;;;;;;1.15;0.47;;;9.80;99.90;;;;;;5134488;27;20035;-66
2023/10/26 05:29:37;;;;;;;3.70;0.80;;;9.80;99.90;;;;;;5132424;27;20019;-66
2023/10/26 05:32:04;;;;;;;3.63;0.60;;;9.80;99.90;;;;;;5134124;27;20031;-69
2023/10/26 05:34:30;;;;;;;2.92;0.60;;;9.80;99.90;;;;;;5133690;27;20027;-66
2023/10/26 05:36:56;;;;;;;2.55;0.65;;;9.80;99.90;;;;;;5135322;27;20072;-69
2023/10/26 05:39:21;;;;;;;0.93;0.50;;;9.80;99.90;;;;;;5118534;27;20451;-68
2023/10/26 05:41:47;;;;;;;1.70;0.68;;;10.00;99.90;;;;;;5131651;27;20016;-66
2023/10/26 05:44:13;;;;;;;4.65;0.82;;;10.00;99.90;;;;;;5131832;27;20035;-67
2023/10/26 05:46:38;;;;;;;2.28;0.77;;;10.00;99.90;;;;;;5122376;27;20443;-67
2023/10/26 05:49:05;;;;;;;1.13;0.63;;;10.10;99.90;;;;;;5120033;27;20027;-66
2023/10/26 05:51:30;;;;;;;3.25;0.65;;;10.20;99.90;;;;;;5123224;27;20091;-67
2023/10/26 05:53:57;;;;;;;6.28;1.00;;;10.20;99.90;;;;;;5131871;27;20404;-67
2023/10/26 05:56:22;;;;;;;10.57;2.03;;;10.30;99.90;;;;;;5122850;27;20546;-68
2023/10/26 05:58:51;;;;;;;4.93;1.48;;;10.40;99.90;;;;;;5130166;27;20119;-68
2023/10/26 06:01:17;;;;;;;3.25;1.38;;;10.50;99.90;;;;;;5115266;27;20024;-67
2023/10/26 06:03:44;;;;;;;1.35;0.57;;;10.60;99.90;;;;;;5133462;27;20015;-67
2023/10/26 06:06:09;;;;;;;2.22;1.00;;;10.60;99.90;;;;;;5127884;27;20426;-67
2023/10/26 06:08:35;;;;;;;2.80;0.75;;;10.70;99.90;;;;;;5125487;27;20119;-68
2023/10/26 06:11:01;;;;;;;1.85;0.75;;;10.80;99.90;;;;;;5135086;27;20022;-68
2023/10/26 06:13:27;;;;;;;1.77;0.80;;;10.80;99.90;;;;;;5133844;27;20015;-68
2023/10/26 06:15:52;;;;;;;1.23;0.52;;;10.90;99.90;;;;;;5134124;27;20039;-67
2023/10/26 06:18:18;;;;;;;4.70;0.80;;;10.90;99.90;;;;;;5133474;27;20027;-67
2023/10/26 06:20:56;;;;;;;2.97;0.50;;;10.90;99.90;;;;;;5135823;27;20019;-67
2023/10/26 06:23:22;;;;;;;2.97;0.80;;;10.90;99.90;;;;;;5121281;27;20024;-67
2023/10/26 06:25:48;;;;;;;2.45;0.60;;;10.90;99.90;;;;;;5125171;27;20034;-67
2023/10/26 06:28:13;;;;;;;2.25;0.70;;;10.80;99.90;;;;;;5121074;27;20034;-68
2023/10/26 06:30:39;;;;;;;4.32;0.95;;;10.70;99.90;;;;;;5132534;27;20023;-68
2023/10/26 06:33:05;;;;;;;2.28;0.80;;;10.70;99.90;;;;;;5131893;27;20094;-67
2023/10/26 06:35:30;;;;;;;1.20;0.75;;;10.60;99.90;;;;;;5130217;27;20038;-68
2023/10/26 06:37:56;;;;;;;1.45;0.80;;;10.50;99.90;;;;;;5128831;27;20023;-67
2023/10/26 06:40:21;;;;;;;3.08;0.93;;;10.40;99.90;;;;;;5131708;27;20337;-67
2023/10/26 06:42:47;;;;;;;1.85;0.82;;;10.40;99.90;;;;;;5132234;27;20019;-67
2023/10/26 06:45:12;;;;;;;1.48;0.90;;;10.30;99.90;;;;;;5132962;27;20368;-68
2023/10/26 06:47:39;;;;;;;3.45;1.00;;;10.30;99.90;;;;;;5130091;27;20031;-68
2023/10/26 06:50:06;;;;;;;3.75;1.92;;;10.30;99.90;;;;;;5133406;27;20027;-67
2023/10/26 06:52:31;;;;;;;1.05;0.70;;;10.30;99.90;;;;;;5123359;27;20061;-67
2023/10/26 06:54:58;;;;;;;2.53;0.60;;;10.30;99.90;;;;;;5127502;27;20063;-67
2023/10/26 06:57:24;;;;;;;3.45;0.75;;;10.30;99.90;;;;;;5124932;27;20019;-68
2023/10/26 06:59:49;;;;;;;1.33;0.90;;;10.40;99.90;;;;;;5134238;27;20029;-67
2023/10/26 07:02:15;;;;;;;3.53;1.00;;;10.40;99.90;;;;;;5114245;27;20030;-68
2023/10/26 07:04:40;;;;;;;1.50;0.80;;;10.40;99.90;;;;;;5133628;27;20426;-67
2023/10/26 07:07:07;;;;;;;1.00;0.60;;;10.50;99.90;;;;;;5133138;27;20019;-67
2023/10/26 07:09:33;;;;;;;2.20;0.65;;;10.60;99.90;;;;;;5131954;27;20086;-67
2023/10/26 07:11:59;;;;;;;3.33;0.93;;;10.70;99.90;;;;;;5117352;27;20102;-68
2023/10/26 07:14:26;;;;;;;1.45;0.80;;;10.70;99.90;;;;;;5130859;27;20430;-67
2023/10/26 07:16:51;;;;;;;2.92;1.35;;;10.80;99.90;;;;;;5123949;27;20039;-67
2023/10/26 07:19:17;;;;;;;3.67;1.92;;;10.90;99.90;;;;;;5132794;27;20459;-67
2023/10/26 07:21:44;;;;;;;2.22;0.80;;;10.90;99.90;;;;;;5121757;27;20027;-67
2023/10/26 07:24:10;;;;;;;2.58;0.70;;;10.90;99.90;;;;;;5121810;27;20032;-67
2023/10/26 07:26:36;;;;;;;2.53;0.90;;;11.00;99.90;;;;;;5131865;27;20023;-67
2023/10/26 07:29:01;;;;;;;1.70;0.60;;;11.10;99.90;;;;;;5124070;27;20396;-67
2023/10/26 07:31:27;;;;;;;4.25;1.00;;;11.20;99.90;;;;;;5119990;27;20026;-66
2023/10/26 07:33:52;;;;;;;2.95;0.85;;;11.20;99.90;;;;;;5132963;27;20385;-67
2023/10/26 07:36:18;;;;;;;3.67;0.93;;;11.30;99.90;;;;;;5131575;27;20019;-67
2023/10/26 07:38:44;;;;;;;3.35;0.73;;;11.30;99.90;;;;;;5120548;27;20395;-66
2023/10/26 07:41:10;;;;;;;3.17;1.10;;;11.40;99.90;;;;;;5111064;27;20043;-66
2023/10/26 07:43:36;;;;;;;1.55;0.73;;;11.40;99.90;;;;;;5121107;27;20103;-67
2023/10/26 07:46:02;;;;;;;3.67;1.08;;;11.50;99.90;;;;;;5119426;27;20063;-67
2023/10/26 07:48:27;;;;;;;1.77;1.02;;;11.50;99.90;;;;;;5131578;27;20102;-67
2023/10/26 07:50:54;;;;;;;1.23;0.80;;;11.50;99.90;;;;;;5113867;27;20471;-67
2023/10/26 07:53:20;;;;;;;3.05;0.77;;;11.60;99.90;;;;;;5126304;27;20098;-67
2023/10/26 07:55:46;;;;;;;2.83;0.77;;;11.60;99.90;;;;;;5129187;27;20090;-67
2023/10/26 07:58:11;;;;;;;3.45;1.50;;;11.70;99.90;;;;;;5122573;27;20015;-67
2023/10/26 08:00:37;;;;;;;2.58;1.27;;;11.70;99.90;;;;;;5130612;27;20395;-67
2023/10/26 08:03:03;;;;;;;2.75;0.68;;;11.80;99.90;;;;;;5119644;27;20072;-67
2023/10/26 08:05:29;;;;;;;3.33;0.77;;;11.80;99.90;;;;;;5131152;27;20035;-68
2023/10/26 08:07:55;;;;;;;2.67;0.60;;;11.90;99.90;;;;;;5118180;27;20077;-67
2023/10/26 08:10:20;;;;;;;2.35;0.55;;;11.90;99.90;;;;;;5131821;27;20026;-67
2023/10/26 08:12:46;;;;;;;1.45;0.50;;;12.00;99.90;;;;;;5117652;27;20031;-67
2023/10/26 08:15:11;;;;;;;2.58;0.68;;;12.10;99.90;;;;;;5132714;27;20077;-68
2023/10/26 08:17:37;;;;;;;1.67;0.63;;;12.10;99.90;;;;;;5117496;27;20023;-68
2023/10/26 08:20:09;;;;;;;1.95;0.50;;;12.20;99.90;;;;;;5132569;27;20364;-68
2023/10/26 08:22:35;;;;;;;3.05;1.13;;;12.20;99.90;;;;;;5112595;27;20027;-68
2023/10/26 08:25:02;;;;;;;1.73;0.70;;;12.30;99.90;;;;;;5126705;27;20054;-67
2023/10/26 08:27:28;;;;;;;2.72;0.77;;;12.30;99.90;;;;;;5129193;27;20103;-67
2023/10/26 08:29:54;;;;;;;3.33;0.90;;;12.30;99.90;;;;;;5120117;27;20027;-67
2023/10/26 08:32:19;;;;;;;1.90;0.70;;;12.30;99.90;;;;;;5110383;28;20023;-67
2023/10/26 08:34:46;;;;;;;3.08;0.68;;;12.30;99.90;;;;;;5123282;27;20027;-68
2023/10/26 08:37:12;;;;;;;4.78;0.95;;;12.30;99.90;;;;;;5128439;27;20055;-68
2023/10/26 08:39:38;;;;;;;1.80;0.80;;;12.30;99.90;;;;;;5131760;27;20517;-68
2023/10/26 08:42:04;;;;;;;1.70;0.60;;;12.30;99.90;;;;;;5122362;27;20035;-68
2023/10/26 08:44:31;;;;;;;2.30;0.73;;;12.30;99.90;;;;;;5123915;28;20067;-68
2023/10/26 08:47:04;;;;;;;4.45;0.70;;;12.30;99.90;;;;;;5102470;28;20023;-68
2023/10/26 08:49:31;;;;;;;1.35;0.77;;;12.40;99.90;;;;;;5114019;28;20820;-68
2023/10/26 08:51:58;;;;;;;2.63;1.25;;;12.40;99.90;;;;;;5098387;28;20035;-68
2023/10/26 08:54:26;;;;;;;2.45;0.77;;;12.40;99.90;;;;;;5131240;28;20041;-68
2023/10/26 08:56:51;;;;;;;1.42;0.52;;;12.50;99.90;;;;;;5122948;28;20051;-68
2023/10/26 08:59:17;;;;;;;1.98;0.98;;;12.40;99.90;;;;;;5125026;28;20047;-68
2023/10/26 09:01:46;;;;;;;1.45;0.70;;;12.60;99.90;;;;;;5128613;28;20026;-68
2023/10/26 09:04:12;;;;;;;4.20;0.73;;;12.60;99.90;;;;;;5131193;28;20422;-68
2023/10/26 09:06:45;;;;;;;2.10;0.90;;;12.70;99.90;;;;;;5125204;28;20019;-68
2023/10/26 09:09:11;;;;;;;2.42;0.80;;;12.80;99.90;;;;;;5127915;28;20018;-68
2023/10/26 09:11:36;;;;;;;1.40;0.70;;;12.80;99.90;;;;;;5130166;28;20023;-68
2023/10/26 09:14:16;;;;;;;1.48;0.80;;;12.80;99.90;;;;;;5131405;28;20467;-68
2023/10/26 09:16:45;;;;;;;1.63;0.90;;;12.80;99.90;;;;;;5121509;28;20048;-68
2023/10/26 09:19:12;;;;;;;2.35;1.00;;;12.80;99.90;;;;;;5125483;28;20015;-68
2023/10/26 09:21:56;;;;;;;3.65;1.15;;;12.80;99.90;;;;;;5129314;28;20463;-67
2023/10/26 09:24:26;;;;;;;2.42;0.98;;;12.80;99.90;;;;;;5130379;27;20455;-68
2023/10/26 09:26:53;;;;;;;;;;;12.70;99.90;;;;;;5124573;28;20076;-67
2023/10/26 09:29:20;;;;;;;3.22;0.90;;;12.60;99.90;;;;;;5120503;28;19900;-67
2023/10/26 09:31:53;;;;;;;5.63;1.20;;;12.50;99.90;;;;;;5115584;28;20027;-67
2023/10/26 09:34:23;;;;;;;7.22;1.55;;;12.40;99.90;;;;;;5116212;28;20468;-67
2023/10/26 09:37:03;;;;;;;2.17;1.17;;;12.40;99.90;;;;;;5125349;28;20071;-67
2023/10/26 09:39:37;;;;;;;2.30;1.13;;;12.30;99.90;;;;;;5131508;27;20030;-67
2023/10/26 09:42:09;;;;;;;3.28;1.10;;;12.30;99.90;;;;;;5132715;27;20106;-67
2023/10/26 09:44:34;;;;;;;4.40;1.50;;;12.20;99.90;;;;;;5134258;27;20136;-67
2023/10/26 09:47:00;;;;;;;1.75;1.27;;;12.10;99.90;;;;;;5133393;27;20051;-67
2023/10/26 09:49:26;;;;;;;4.13;1.50;;;12.00;99.90;;;;;;5133348;27;20028;-68
2023/10/26 09:51:53;;;;;;;4.25;1.30;;;11.90;99.90;;;;;;5135173;27;20098;-67
2023/10/26 09:54:21;;;;;;;2.85;1.95;;;11.80;99.90;;;;;;5133927;27;20493;-68
2023/10/26 09:56:55;;;;;;;2.13;1.60;;;11.70;99.90;;;;;;5135724;27;20447;-67
2023/10/26 09:59:23;;;;;;;3.70;1.50;;;11.60;99.90;;;;;;5122718;27;20066;-67
2023/10/26 10:01:48;;;;;;;4.88;2.50;;;11.50;99.90;;;;;;5129248;27;20027;-67
2023/10/26 10:04:18;;;;;;;5.80;3.58;;;11.60;99.90;;;;;;5133951;27;20490;-67
2023/10/26 10:06:50;;;;;;;7.22;3.65;;;11.50;99.90;;;;;;5123559;27;20147;-67
2023/10/26 10:09:26;;;;;;;8.02;4.00;;;11.30;99.90;;;;;;5131045;27;20051;-67
2023/10/26 10:12:15;;;;;;;10.90;4.70;;;11.10;99.90;;;;;;5129950;27;20039;-67
2023/10/26 10:14:47;;;;;;;10.53;4.90;;;11.00;99.90;;;;;;5128860;27;20027;-67
2023/10/26 10:17:17;;;;;;;6.35;4.43;;;11.10;99.90;;;;;;5119962;27;20432;-68
2023/10/26 10:19:46;;;;;;;12.23;6.20;;;11.10;99.90;;;;;;5135000;27;20033;-68
2023/10/26 10:22:39;;;;;;;8.40;5.45;;;11.10;99.90;;;;;;5128239;27;20554;-68
2023/10/26 10:25:09;;;;;;;8.98;4.53;;;11.10;99.90;;;;;;5131180;27;20383;-68
2023/10/26 10:27:34;;;;;;;9.32;5.20;;;11.00;99.90;;;;;;5119546;27;20152;-68
2023/10/26 10:30:05;;;;;;;9.35;5.25;;;11.00;99.90;;;;;;5115779;27;20107;-68
2023/10/26 10:32:46;;;;;;;;;;;11.00;99.90;;;;;;5120101;27;20046;-68
2023/10/26 10:35:27;;;;;;;9.52;4.20;;;11.00;99.90;;;;;;5133872;27;19907;-68
2023/10/26 10:38:11;;;;;;;5.82;4.65;;;11.00;99.90;;;;;;5129934;27;20088;-68
2023/10/26 10:40:38;;;;;;;6.68;4.95;;;11.00;99.90;;;;;;5133784;27;20029;-68
2023/10/26 10:43:05;;;;;;;7.90;5.60;;;11.00;99.90;;;;;;5132822;27;20043;-68
2023/10/26 10:45:31;;;;;;;7.03;5.07;;;11.00;99.90;;;;;;5133333;27;20134;-68
2023/10/26 10:47:56;;;;;;;8.00;5.25;;;10.90;99.90;;;;;;5131508;27;20586;-68
2023/10/26 10:50:24;;;;;;;6.95;4.32;;;10.90;99.90;;;;;;5132588;27;20038;-68
2023/10/26 10:52:53;;;;;;;5.22;4.05;;;10.90;99.90;;;;;;5130572;27;20067;-68
2023/10/26 10:55:32;;;;;;;5.65;4.50;;;11.00;99.90;;;;;;5125617;27;20092;-68
2023/10/26 10:58:03;;;;;;;5.68;4.00;;;11.10;99.90;;;;;;5122090;27;20031;-68
2023/10/26 11:00:45;;;;;;;;;;;11.10;99.90;;;;;;5133203;27;20487;-68
2023/10/26 11:03:21;;;;;;;3.70;3.28;;;11.20;99.90;;;;;;5128172;27;19907;-68
2023/10/26 11:05:48;;;;;;;4.60;2.97;;;11.30;99.90;;;;;;5133180;27;20031;-68
2023/10/26 11:08:14;;;;;;;3.35;2.75;;;11.30;99.90;;;;;;5121861;27;20039;-68
2023/10/26 11:10:39;;;;;;;2.70;2.50;;;11.40;99.90;;;;;;5130702;27;20494;-68
2023/10/26 11:13:05;;;;;;;4.78;2.65;;;11.50;99.90;;;;;;5114493;27;20034;-68
2023/10/26 11:15:38;;;;;;;4.20;2.90;;;11.50;99.90;;;;;;5129546;27;20058;-66
2023/10/26 11:18:06;;;;;;;4.25;3.63;;;11.60;99.90;;;;;;5112239;27;20019;-68
2023/10/26 11:20:37;;;;;;;5.68;3.60;;;11.80;99.90;;;;;;5133159;27;20053;-68
2023/10/26 11:23:11;;;;;;;3.35;2.90;;;11.90;99.90;;;;;;5131798;27;20110;-68
2023/10/26 11:25:37;;;;;;;5.35;2.80;;;12.10;99.90;;;;;;5132474;27;20027;-68
2023/10/26 11:28:03;;;;;;;3.72;3.22;;;12.20;99.90;;;;;;5129543;27;20466;-68
2023/10/26 11:30:30;;;;;;;4.32;2.63;;;12.30;99.90;;;;;;5119366;27;20413;-69
2023/10/26 11:32:56;;;;;;;3.03;2.28;;;12.40;99.90;;;;;;5119326;27;20023;-67
2023/10/26 11:35:23;;;;;;;2.47;2.17;;;12.50;99.90;;;;;;5122463;27;20030;-67
2023/10/26 11:37:53;;;;;;;3.80;2.67;;;12.40;99.90;;;;;;5112414;27;20071;-67
2023/10/26 11:40:27;;;;;;;;;;;12.30;99.90;;;;;;5132929;27;20019;-68
2023/10/26 11:43:05;;;;;;;6.50;2.65;;;12.30;99.90;;;;;;5123496;27;19925;-67
2023/10/26 11:45:50;;;;;;;2.58;2.38;;;12.20;99.90;;;;;;5132153;27;20027;-67
2023/10/26 11:48:26;;;;;;;2.55;2.22;;;12.20;99.90;;;;;;5131670;27;20105;-67
2023/10/26 11:50:53;;;;;;;4.82;2.30;;;12.10;99.90;;;;;;5131548;27;20015;-68
2023/10/26 11:53:22;;;;;;;3.80;2.42;;;12.20;99.90;;;;;;5118505;27;20385;-67
2023/10/26 11:55:49;;;;;;;2.60;2.30;;;12.20;99.90;;;;;;5132970;27;20071;-68
2023/10/26 11:58:15;;;;;;;3.20;2.22;;;12.30;99.90;;;;;;5123079;27;20031;-68
2023/10/26 12:00:42;;;;;;;3.17;1.95;;;12.40;99.90;;;;;;5132498;27;20164;-68
2023/10/26 12:03:08;;;;;;;2.70;2.15;;;12.70;99.90;;;;;;5121284;27;20124;-68
2023/10/26 12:05:34;;;;;;;1.77;1.60;;;12.80;99.90;;;;;;5131833;27;20023;-68
2023/10/26 12:08:00;;;;;;;3.53;2.00;;;12.90;99.90;;;;;;5131622;27;20027;-68
2023/10/26 12:10:26;;;;;;;5.18;1.83;;;13.20;99.90;;;;;;5131664;27;20456;-67
2023/10/26 12:12:52;;;;;;;2.88;2.10;;;13.40;99.90;;;;;;5132709;27;20019;-67
2023/10/26 12:15:19;;;;;;;2.75;1.83;;;13.50;99.90;;;;;;5130749;27;20039;-72
2023/10/26 12:17:45;;;;;;;4.32;2.20;;;13.70;99.90;;;;;;5131530;27;20519;-67
2023/10/26 12:20:11;;;;;;;1.10;1.10;;;13.90;99.90;;;;;;5113941;27;20030;-67
2023/10/26 12:22:37;;;;;;;2.33;1.35;;;14.30;99.90;;;;;;5127415;27;20035;-68
2023/10/26 12:25:10;;;;;;;1.92;1.27;;;14.50;99.90;;;;;;5132418;27;20027;-67
2023/10/26 12:27:36;;;;;;;3.72;2.03;;;14.50;99.90;;;;;;5130468;27;20038;-67
2023/10/26 12:30:03;;;;;;;2.85;1.80;;;14.70;99.90;;;;;;5131758;27;20026;-67
2023/10/26 12:32:32;;;;;;;3.55;2.30;;;14.80;99.90;;;;;;5129700;27;20472;-67
2023/10/26 12:34:57;;;;;;;6.23;2.80;;;14.80;99.90;;;;;;5126461;27;20015;-67
2023/10/26 12:37:23;;;;;;;3.08;2.08;;;14.80;99.90;;;;;;5118429;27;20086;-67
2023/10/26 12:39:49;;;;;;;3.75;2.13;;;14.70;99.90;;;;;;5132472;27;20030;-67
2023/10/26 12:42:14;;;;;;;2.30;2.08;;;14.70;99.90;;;;;;5131475;27;20038;-67
2023/10/26 12:44:40;;;;;;;4.75;1.83;;;14.60;99.90;;;;;;5131618;28;20080;-67
2023/10/26 12:47:06;;;;;;;3.40;2.10;;;14.60;99.90;;;;;;5128419;27;20426;-66
2023/10/26 12:49:34;;;;;;;6.63;2.55;;;14.60;99.90;;;;;;5131193;28;20501;-67
2023/10/26 12:52:00;;;;;;;7.03;2.88;;;14.70;99.90;;;;;;5118033;28;20027;-67
2023/10/26 12:54:26;;;;;;;3.80;2.78;;;14.80;99.90;;;;;;5129776;27;20355;-67
2023/10/26 12:56:52;;;;;;;5.57;2.90;;;14.90;99.90;;;;;;5119116;28;20028;-67
2023/10/26 12:59:18;;;;;;;3.10;2.40;;;15.00;99.90;;;;;;5128927;28;20508;-66
2023/10/26 13:01:44;;;;;;;5.15;2.22;;;15.00;99.90;;;;;;5120514;28;20509;-67
2023/10/26 13:04:09;;;;;;;3.25;2.67;;;15.00;99.90;;;;;;5127586;28;20019;-68
2023/10/26 13:06:35;;;;;;;3.63;2.55;;;14.90;99.90;;;;;;5120837;28;20036;-68
2023/10/26 13:09:02;;;;;;;3.70;2.60;;;14.90;99.90;;;;;;5126927;28;20023;-68
2023/10/26 13:11:27;;;;;;;4.25;2.20;;;14.90;99.90;;;;;;5122479;28;20015;-68
2023/10/26 13:13:53;;;;;;;3.05;1.92;;;15.00;99.90;;;;;;5128767;27;20363;-67
2023/10/26 13:16:19;;;;;;;2.58;1.80;;;15.20;99.90;;;;;;5127222;27;20047;-68